createdAt,value
2019-05-18T00:01:09.674Z,3.70
2019-05-18T00:03:35.869Z,3.90
2019-05-18T00:06:02.050Z,3.83
2019-05-18T00:08:28.251Z,4.33
2019-05-18T00:10:54.393Z,3.67
2019-05-18T00:13:20.589Z,4.60
2019-05-18T00:15:46.731Z,3.97
2019-05-18T00:18:12.950Z,3.93
2019-05-18T00:20:39.107Z,3.70
2019-05-18T00:23:05.396Z,3.80
2019-05-18T00:25:32.849Z,3.33
2019-05-18T00:27:59.719Z,3.43
2019-05-18T00:30:25.987Z,3.90
2019-05-18T00:32:52.137Z,3.43
2019-05-18T00:35:18.340Z,3.77
2019-05-18T00:37:44.481Z,3.47
2019-05-18T00:40:11.109Z,3.40
2019-05-18T00:42:37.257Z,3.47
2019-05-18T00:45:07.082Z,3.30
2019-05-18T00:47:41.564Z,3.13
2019-05-18T00:50:01.475Z,3.33
2019-05-18T00:52:28.025Z,3.73
2019-05-18T00:54:54.216Z,3.57
2019-05-18T00:57:20.365Z,3.13
2019-05-18T00:59:46.585Z,3.00
2019-05-18T01:02:12.722Z,3.30
2019-05-18T01:04:38.951Z,3.47
2019-05-18T01:07:05.657Z,3.07
2019-05-18T01:09:31.858Z,3.57
2019-05-18T01:11:57.995Z,3.57
2019-05-18T01:14:24.224Z,3.90
2019-05-18T01:16:50.601Z,3.67
2019-05-18T01:19:16.818Z,4.10
2019-05-18T01:21:43.030Z,4.57
2019-05-18T01:24:09.222Z,4.03
2019-05-18T01:26:35.416Z,6.17
2019-05-18T01:29:03.152Z,3.60
2019-05-18T01:31:30.266Z,4.13
2019-05-18T01:33:56.405Z,3.43
2019-05-18T01:36:22.644Z,3.87
2019-05-18T01:38:48.822Z,3.90
2019-05-18T01:41:15.218Z,3.13
2019-05-18T01:43:41.356Z,4.20
2019-05-18T01:46:14.269Z,3.33
2019-05-18T01:48:40.469Z,3.40
2019-05-18T01:51:06.808Z,3.43
2019-05-18T01:53:32.947Z,3.63
2019-05-18T01:55:59.150Z,4.60
2019-05-18T01:58:25.573Z,3.33
2019-05-18T02:00:51.809Z,4.47
2019-05-18T02:03:17.932Z,3.27
2019-05-18T02:05:44.402Z,3.83
2019-05-18T02:08:10.545Z,3.27
2019-05-18T02:10:36.748Z,3.80
2019-05-18T02:13:02.999Z,4.90
2019-05-18T02:15:29.270Z,3.97
2019-05-18T02:17:55.409Z,3.20
2019-05-18T02:20:21.607Z,3.33
2019-05-18T02:22:47.820Z,3.87
2019-05-18T02:25:14.619Z,4.20
2019-05-18T02:27:40.765Z,4.07
2019-05-18T02:30:08.811Z,3.93
2019-05-18T02:32:35.319Z,4.10
2019-05-18T02:35:03.413Z,3.77
2019-05-18T02:37:29.648Z,3.90
2019-05-18T02:39:56.189Z,4.53
2019-05-18T02:42:22.410Z,3.80
2019-05-18T02:44:48.550Z,3.73
2019-05-18T02:47:14.754Z,3.77
2019-05-18T02:49:40.913Z,3.37
2019-05-18T02:52:07.134Z,3.33
2019-05-18T02:54:33.270Z,4.07
2019-05-18T02:56:59.474Z,3.80
2019-05-18T02:59:25.935Z,3.33
2019-05-18T03:01:52.160Z,5.33
2019-05-18T03:04:18.331Z,4.23
2019-05-18T03:06:44.522Z,3.77
2019-05-18T03:09:10.733Z,4.03
2019-05-18T03:11:36.931Z,4.10
2019-05-18T03:14:03.209Z,3.77
2019-05-18T03:16:30.080Z,3.77
2019-05-18T03:19:07.766Z,3.63
2019-05-18T03:21:24.767Z,3.83
2019-05-18T03:23:51.041Z,4.07
2019-05-18T03:26:17.184Z,4.07
2019-05-18T03:28:43.397Z,4.47
2019-05-18T03:31:09.610Z,3.60
2019-05-18T03:33:35.817Z,3.30
2019-05-18T03:36:01.964Z,4.27
2019-05-18T03:38:28.456Z,3.77
2019-05-18T03:40:54.607Z,3.23
2019-05-18T03:43:21.138Z,4.30
2019-05-18T03:45:47.291Z,4.50
2019-05-18T03:48:13.522Z,4.87
2019-05-18T03:50:40.975Z,4.13
2019-05-18T03:53:07.280Z,4.43
2019-05-18T03:55:33.434Z,3.77
2019-05-18T03:57:59.633Z,3.50
2019-05-18T04:00:26.106Z,5.20
2019-05-18T04:02:52.333Z,4.30
2019-05-18T04:05:18.455Z,4.53
2019-05-18T04:07:44.663Z,4.57
2019-05-18T04:10:11.575Z,4.17
2019-05-18T04:12:37.792Z,6.43
2019-05-18T04:15:05.842Z,4.07
2019-05-18T04:17:32.059Z,4.00
2019-05-18T04:19:58.200Z,4.07
2019-05-18T04:22:24.578Z,4.43
2019-05-18T04:24:50.800Z,3.93
2019-05-18T04:27:17.262Z,4.17
2019-05-18T04:29:43.468Z,4.63
2019-05-18T04:32:09.595Z,4.40
2019-05-18T04:34:35.822Z,4.20
2019-05-18T04:37:01.973Z,4.40
2019-05-18T04:39:28.201Z,4.20
2019-05-18T04:41:54.622Z,4.07
2019-05-18T04:44:20.796Z,3.80
2019-05-18T04:46:47.853Z,3.73
2019-05-18T04:49:14.053Z,5.87
2019-05-18T04:51:40.203Z,4.00
2019-05-18T04:54:06.407Z,3.70
2019-05-18T04:56:32.558Z,3.50
2019-05-18T04:58:58.749Z,3.57
2019-05-18T05:01:24.929Z,3.23
2019-05-18T05:03:52.485Z,3.30
2019-05-18T05:06:18.951Z,3.87
2019-05-18T05:08:45.173Z,3.73
2019-05-18T05:11:11.309Z,3.37
2019-05-18T05:13:37.525Z,4.13
2019-05-18T05:16:03.652Z,3.30
2019-05-18T05:18:29.869Z,3.93
2019-05-18T05:20:56.006Z,3.97
2019-05-18T05:23:22.494Z,3.83
2019-05-18T05:25:49.037Z,3.50
2019-05-18T05:28:15.189Z,3.83
2019-05-18T05:30:41.515Z,3.27
2019-05-18T05:33:07.673Z,2.90
2019-05-18T05:35:33.861Z,2.90
2019-05-18T05:38:00.425Z,3.27
2019-05-18T05:40:26.589Z,2.77
2019-05-18T05:42:52.729Z,3.00
2019-05-18T05:45:19.045Z,2.93
2019-05-18T05:47:45.173Z,2.67
2019-05-18T05:50:11.783Z,3.10
2019-05-18T05:52:38.231Z,2.83
2019-05-18T05:55:07.239Z,3.70
2019-05-18T05:57:33.372Z,3.13
2019-05-18T05:59:59.567Z,2.83
2019-05-18T06:02:25.725Z,3.53
2019-05-18T06:04:51.957Z,3.77
2019-05-18T06:07:19.841Z,3.20
2019-05-18T06:09:46.464Z,3.60
2019-05-18T06:12:12.564Z,3.03
2019-05-18T06:14:38.769Z,2.80
2019-05-18T06:17:08.286Z,2.80
2019-05-18T06:19:33.017Z,4.23
2019-05-18T06:21:59.300Z,3.37
2019-05-18T06:24:25.577Z,2.70
2019-05-18T06:26:51.716Z,2.90
2019-05-18T06:29:17.977Z,2.83
2019-05-18T06:31:44.441Z,4.27
2019-05-18T06:34:10.661Z,2.77
2019-05-18T06:36:37.519Z,2.53
2019-05-18T06:39:05.943Z,2.60
2019-05-18T06:41:32.079Z,2.87
2019-05-18T06:43:58.522Z,2.70
2019-05-18T06:46:25.340Z,2.53
2019-05-18T06:48:51.515Z,2.40
2019-05-18T06:51:18.000Z,2.87
2019-05-18T06:53:44.138Z,4.07
2019-05-18T06:56:11.039Z,2.83
2019-05-18T06:58:37.806Z,2.30
2019-05-18T07:01:04.008Z,2.97
2019-05-18T07:03:30.158Z,2.87
2019-05-18T07:05:56.351Z,2.60
2019-05-18T07:08:22.510Z,2.80
2019-05-18T07:10:48.722Z,2.13
2019-05-18T07:13:14.852Z,2.50
2019-05-18T07:15:41.068Z,3.17
2019-05-18T07:18:07.208Z,3.27
2019-05-18T07:20:33.739Z,2.30
2019-05-18T07:23:00.032Z,2.73
2019-05-18T07:25:26.219Z,2.63
2019-05-18T07:27:52.361Z,3.40
2019-05-18T07:30:18.664Z,3.00
2019-05-18T07:32:44.802Z,2.90
2019-05-18T07:35:11.810Z,2.97
2019-05-18T07:37:37.983Z,3.03
2019-05-18T07:40:06.365Z,2.93
2019-05-18T07:42:32.482Z,3.13
2019-05-18T07:44:58.835Z,2.63
2019-05-18T07:47:25.292Z,2.80
2019-05-18T07:49:51.896Z,2.80
2019-05-18T07:52:18.149Z,2.90
2019-05-18T07:54:44.295Z,2.73
2019-05-18T07:57:10.861Z,2.63
2019-05-18T07:59:37.042Z,2.80
2019-05-18T08:02:03.267Z,2.83
2019-05-18T08:04:29.768Z,2.90
2019-05-18T08:06:56.043Z,2.90
2019-05-18T08:09:22.156Z,3.60
2019-05-18T08:11:48.626Z,3.03
2019-05-18T08:14:14.830Z,2.73
2019-05-18T08:16:41.179Z,2.80
2019-05-18T08:19:07.320Z,2.90
2019-05-18T08:21:33.809Z,3.00
2019-05-18T08:24:00.285Z,2.83
2019-05-18T08:26:26.510Z,3.03
2019-05-18T08:28:52.649Z,3.10
2019-05-18T08:31:18.881Z,2.50
2019-05-18T08:33:45.261Z,3.17
2019-05-18T08:36:11.722Z,2.80
2019-05-18T08:38:37.878Z,2.77
2019-05-18T08:41:04.171Z,3.10
2019-05-18T08:43:30.346Z,2.97
2019-05-18T08:45:56.918Z,2.87
2019-05-18T08:48:23.020Z,2.60
2019-05-18T08:50:49.587Z,4.05
2019-05-18T08:53:15.979Z,3.37
2019-05-18T08:55:42.201Z,3.40
2019-05-18T08:58:08.341Z,3.07
2019-05-18T09:00:34.517Z,2.73
2019-05-18T09:03:00.773Z,2.87
2019-05-18T09:05:26.913Z,2.70
2019-05-18T09:07:53.108Z,2.97
2019-05-18T09:10:19.367Z,2.87
2019-05-18T09:12:45.574Z,2.87
2019-05-18T09:15:12.618Z,2.70
2019-05-18T09:17:38.855Z,2.97
2019-05-18T09:20:06.689Z,3.40
2019-05-18T09:22:32.894Z,2.83
2019-05-18T09:24:59.102Z,2.87
2019-05-18T09:27:25.316Z,2.70
2019-05-18T09:29:51.774Z,3.47
2019-05-18T09:32:18.023Z,2.60
2019-05-18T09:34:44.199Z,4.47
2019-05-18T09:37:10.666Z,3.07
2019-05-18T09:39:36.803Z,2.87
2019-05-18T09:42:03.111Z,2.50
2019-05-18T09:44:29.264Z,2.60
2019-05-18T09:46:55.494Z,3.17
2019-05-18T09:49:21.633Z,2.73
2019-05-18T09:51:47.858Z,2.77
2019-05-18T09:54:14.318Z,2.87
2019-05-18T09:56:40.522Z,2.67
2019-05-18T09:59:06.650Z,3.07
2019-05-18T10:01:32.858Z,2.70
2019-05-18T10:03:59.347Z,2.53
2019-05-18T10:06:25.560Z,2.80
2019-05-18T10:08:51.698Z,2.40
2019-05-18T10:11:18.175Z,2.63
2019-05-18T10:13:44.726Z,2.17
2019-05-18T10:16:10.959Z,2.00
2019-05-18T10:18:37.172Z,2.70
2019-05-18T10:21:03.468Z,2.80
2019-05-18T10:23:29.730Z,2.60
2019-05-18T10:25:55.896Z,2.37
2019-05-18T10:28:22.419Z,2.57
2019-05-18T10:30:48.561Z,2.57
2019-05-18T10:33:14.777Z,2.60
2019-05-18T10:35:40.916Z,2.63
2019-05-18T10:38:07.173Z,2.67
2019-05-18T10:40:33.303Z,2.43
2019-05-18T10:42:59.530Z,2.17
2019-05-18T10:45:25.673Z,2.23
2019-05-18T10:47:52.200Z,2.60
2019-05-18T10:50:18.786Z,2.20
2019-05-18T10:52:44.989Z,2.83
2019-05-18T10:55:11.950Z,2.03
2019-05-18T10:57:38.255Z,1.93
2019-05-18T11:00:10.293Z,1.93
2019-05-18T11:02:36.715Z,2.03
2019-05-18T11:05:06.452Z,2.20
2019-05-18T11:07:32.660Z,2.80
2019-05-18T11:09:58.800Z,2.27
2019-05-18T11:12:25.040Z,2.13
2019-05-18T11:14:51.261Z,4.23
2019-05-18T11:17:17.701Z,2.50
2019-05-18T11:19:43.928Z,2.20
2019-05-18T11:22:10.192Z,2.27
2019-05-18T11:24:36.542Z,1.90
2019-05-18T11:27:02.851Z,2.50
2019-05-18T11:29:29.118Z,2.03
2019-05-18T11:31:55.304Z,2.30
2019-05-18T11:34:21.553Z,2.80
2019-05-18T11:36:47.690Z,2.43
2019-05-18T11:39:13.901Z,2.60
2019-05-18T11:41:40.312Z,2.13
2019-05-18T11:44:06.516Z,2.47
2019-05-18T11:46:33.145Z,2.10
2019-05-18T11:48:59.384Z,2.60
2019-05-18T11:51:25.559Z,3.07
2019-05-18T11:53:58.298Z,2.50
2019-05-18T11:56:20.093Z,2.63
2019-05-18T11:58:46.378Z,2.17
2019-05-18T12:01:12.620Z,2.27
2019-05-18T12:03:39.178Z,2.10
2019-05-18T12:06:05.405Z,2.67
2019-05-18T12:08:31.548Z,2.23
2019-05-18T12:10:57.768Z,2.23
2019-05-18T12:13:24.128Z,3.10
2019-05-18T12:15:50.352Z,2.50
2019-05-18T12:18:16.515Z,2.87
2019-05-18T12:20:43.042Z,2.47
2019-05-18T12:23:09.257Z,2.43
2019-05-18T12:25:35.467Z,2.97
2019-05-18T12:28:01.628Z,2.40
2019-05-18T12:30:28.184Z,2.30
2019-05-18T12:32:54.324Z,2.23
2019-05-18T12:35:20.737Z,2.37
2019-05-18T12:37:47.203Z,2.57
2019-05-18T12:40:19.148Z,2.70
2019-05-18T12:42:45.276Z,2.67
2019-05-18T12:45:11.814Z,3.30
2019-05-18T12:47:38.268Z,3.10
2019-05-18T12:50:07.873Z,2.67
2019-05-18T12:52:34.036Z,2.70
2019-05-18T12:55:00.552Z,2.47
2019-05-18T12:57:26.792Z,3.10
2019-05-18T12:59:52.997Z,2.60
2019-05-18T13:02:19.167Z,2.63
2019-05-18T13:04:45.377Z,2.80
2019-05-18T13:07:11.527Z,2.40
2019-05-18T13:09:37.725Z,3.00
2019-05-18T13:12:03.878Z,3.43
2019-05-18T13:14:30.022Z,3.37
2019-05-18T13:16:56.281Z,3.07
2019-05-18T13:19:22.485Z,3.07
2019-05-18T13:21:48.885Z,3.57
2019-05-18T13:24:15.199Z,3.30
2019-05-18T13:26:41.715Z,4.13
2019-05-18T13:29:07.847Z,2.70
2019-05-18T13:31:34.487Z,3.47
2019-05-18T13:34:00.627Z,2.80
2019-05-18T13:36:26.857Z,4.83
2019-05-18T13:38:53.000Z,2.93
2019-05-18T13:41:19.239Z,3.27
2019-05-18T13:43:45.357Z,2.97
2019-05-18T13:46:11.626Z,3.43
2019-05-18T13:48:37.749Z,4.10
2019-05-18T13:51:03.979Z,3.20
2019-05-18T13:53:30.415Z,3.20
2019-05-18T13:55:56.635Z,3.67
2019-05-18T13:58:22.778Z,3.37
2019-05-18T14:00:49.010Z,3.37
2019-05-18T14:03:15.153Z,3.73
2019-05-18T14:05:41.358Z,3.47
2019-05-18T14:08:07.533Z,3.43
2019-05-18T14:10:33.634Z,3.70
2019-05-18T14:13:00.170Z,3.73
2019-05-18T14:15:26.653Z,3.67
2019-05-18T14:17:53.154Z,3.63
2019-05-18T14:20:19.295Z,3.30
2019-05-18T14:22:45.835Z,4.03
2019-05-18T14:25:19.476Z,4.50
2019-05-18T14:27:40.427Z,3.73
2019-05-18T14:30:07.858Z,3.57
2019-05-18T14:32:34.065Z,4.17
2019-05-18T14:35:00.483Z,4.83
2019-05-18T14:37:27.049Z,4.13
2019-05-18T14:39:53.168Z,4.73
2019-05-18T14:42:19.387Z,4.53
2019-05-18T14:44:45.526Z,4.30
2019-05-18T14:47:11.729Z,4.60
2019-05-18T14:49:38.218Z,4.10
2019-05-18T14:52:04.467Z,3.93
2019-05-18T14:54:30.580Z,4.50
2019-05-18T14:56:57.120Z,4.53
2019-05-18T14:59:23.261Z,3.97
2019-05-18T15:01:49.484Z,3.57
2019-05-18T15:04:15.947Z,4.27
2019-05-18T15:06:42.194Z,4.23
2019-05-18T15:09:08.365Z,4.20
2019-05-18T15:11:34.516Z,4.30
2019-05-18T15:14:01.325Z,3.70
2019-05-18T15:16:27.466Z,4.27
2019-05-18T15:18:53.933Z,3.97
2019-05-18T15:21:20.080Z,4.87
2019-05-18T15:23:46.623Z,3.53
2019-05-18T15:26:13.076Z,4.50
2019-05-18T15:28:39.432Z,3.90
2019-05-18T15:31:05.651Z,4.37
2019-05-18T15:33:32.353Z,4.33
2019-05-18T15:35:58.521Z,4.60
2019-05-18T15:38:24.767Z,4.63
2019-05-18T15:40:50.871Z,4.20
2019-05-18T15:43:17.522Z,3.67
2019-05-18T15:45:43.663Z,4.40
2019-05-18T15:48:09.854Z,4.40
2019-05-18T15:50:35.993Z,4.17
2019-05-18T15:53:02.207Z,4.83
2019-05-18T15:55:28.367Z,4.13
2019-05-18T15:57:54.925Z,3.93
2019-05-18T16:00:22.493Z,4.17
2019-05-18T16:02:49.248Z,4.83
2019-05-18T16:05:16.074Z,4.57
2019-05-18T16:07:42.573Z,6.97
2019-05-18T16:10:09.433Z,4.40
2019-05-18T16:12:35.736Z,4.63
2019-05-18T16:15:05.982Z,4.70
2019-05-18T16:17:39.366Z,4.50
2019-05-18T16:20:04.284Z,4.27
2019-05-18T16:22:30.787Z,4.03
2019-05-18T16:24:57.084Z,4.33
2019-05-18T16:27:23.254Z,4.50
2019-05-18T16:29:49.759Z,4.30
2019-05-18T16:32:15.899Z,4.33
2019-05-18T16:34:42.107Z,4.73
2019-05-18T16:37:08.339Z,4.73
2019-05-18T16:39:34.548Z,5.07
2019-05-18T16:42:00.682Z,4.73
2019-05-18T16:44:26.869Z,5.00
2019-05-18T16:46:53.044Z,4.20
2019-05-18T16:49:19.240Z,4.17
2019-05-18T16:51:45.391Z,4.23
2019-05-18T16:54:11.605Z,4.07
2019-05-18T16:56:37.748Z,4.60
2019-05-18T16:59:04.072Z,3.97
2019-05-18T17:01:30.203Z,3.90
2019-05-18T17:03:56.664Z,3.60
2019-05-18T17:06:22.860Z,4.63
2019-05-18T17:08:49.114Z,3.77
2019-05-18T17:11:15.209Z,4.33
2019-05-18T17:13:41.441Z,4.43
2019-05-18T17:16:07.592Z,4.70
2019-05-18T17:18:33.831Z,4.37
2019-05-18T17:21:00.319Z,4.17
2019-05-18T17:23:26.649Z,3.90
2019-05-18T17:26:12.734Z,3.93
2019-05-18T17:28:38.993Z,4.33
2019-05-18T17:31:05.245Z,4.13
2019-05-18T17:33:31.427Z,4.00
2019-05-18T17:36:00.316Z,4.73
2019-05-18T17:38:25.709Z,4.30
2019-05-18T17:40:51.975Z,4.70
2019-05-18T17:43:18.145Z,4.37
2019-05-18T17:45:44.398Z,4.57
2019-05-18T17:48:10.518Z,5.80
2019-05-18T17:50:36.744Z,5.20
2019-05-18T17:53:03.469Z,3.97
2019-05-18T17:55:29.702Z,5.00
2019-05-18T17:57:55.889Z,4.67
2019-05-18T18:00:22.218Z,4.37
2019-05-18T18:02:48.514Z,4.73
2019-05-18T18:05:15.144Z,4.30
2019-05-18T18:07:41.292Z,4.80
2019-05-18T18:10:08.566Z,4.57
2019-05-18T18:12:34.736Z,4.97
2019-05-18T18:15:01.715Z,5.07
2019-05-18T18:17:27.934Z,5.50
2019-05-18T18:19:54.116Z,5.03
2019-05-18T18:22:23.599Z,5.50
2019-05-18T18:24:48.351Z,5.37
2019-05-18T18:27:24.843Z,5.00
2019-05-18T18:29:42.661Z,6.10
2019-05-18T18:32:08.834Z,5.47
2019-05-18T18:34:35.259Z,7.27
2019-05-18T18:37:01.423Z,6.13
2019-05-18T18:39:27.879Z,5.57
2019-05-18T18:41:54.085Z,5.80
2019-05-18T18:44:20.252Z,6.00
2019-05-18T18:46:46.407Z,5.80
2019-05-18T18:49:12.570Z,5.63
2019-05-18T18:51:39.050Z,5.80
2019-05-18T18:54:05.190Z,5.97
2019-05-18T18:56:31.421Z,5.70
2019-05-18T18:58:57.567Z,5.90
2019-05-18T19:01:23.737Z,5.83
2019-05-18T19:03:49.977Z,6.07
2019-05-18T19:06:16.171Z,5.73
2019-05-18T19:08:42.558Z,5.37
2019-05-18T19:11:08.840Z,6.40
2019-05-18T19:13:35.004Z,6.90
2019-05-18T19:16:01.487Z,6.07
2019-05-18T19:18:27.756Z,6.57
2019-05-18T19:20:53.978Z,7.87
2019-05-18T19:23:20.546Z,6.80
2019-05-18T19:25:46.845Z,6.70
2019-05-18T19:28:13.006Z,6.60
2019-05-18T19:30:45.788Z,7.77
2019-05-18T19:33:12.205Z,7.60
2019-05-18T19:35:38.676Z,7.07
2019-05-18T19:38:04.919Z,6.47
2019-05-18T19:40:31.078Z,7.93
2019-05-18T19:42:57.245Z,7.33
2019-05-18T19:45:23.399Z,7.87
2019-05-18T19:47:49.916Z,7.03
2019-05-18T19:50:16.403Z,7.97
2019-05-18T19:52:42.561Z,7.40
2019-05-18T19:55:09.377Z,7.47
2019-05-18T19:57:35.795Z,7.83
2019-05-18T20:00:06.949Z,7.53
2019-05-18T20:02:33.106Z,9.67
2019-05-18T20:05:07.584Z,8.67
2019-05-18T20:07:27.356Z,8.47
2019-05-18T20:09:53.505Z,8.03
2019-05-18T20:12:19.828Z,8.37
2019-05-18T20:14:45.976Z,8.40
2019-05-18T20:17:12.275Z,8.27
2019-05-18T20:19:39.827Z,8.30
2019-05-18T20:22:06.183Z,8.30
2019-05-18T20:24:32.642Z,8.70
2019-05-18T20:26:58.824Z,8.53
2019-05-18T20:29:25.017Z,7.87
2019-05-18T20:31:51.230Z,8.53
2019-05-18T20:34:17.386Z,9.20
2019-05-18T20:36:43.544Z,7.90
2019-05-18T20:39:09.728Z,8.03
2019-05-18T20:41:35.895Z,7.90
2019-05-18T20:44:02.449Z,8.50
2019-05-18T20:46:28.640Z,7.80
2019-05-18T20:48:55.090Z,8.23
2019-05-18T20:51:21.281Z,7.70
2019-05-18T20:53:47.425Z,8.03
2019-05-18T20:56:13.613Z,7.57
2019-05-18T20:58:40.848Z,7.87
2019-05-18T21:01:07.121Z,7.73
2019-05-18T21:03:33.635Z,7.57
2019-05-18T21:05:59.814Z,8.93
2019-05-18T21:08:25.955Z,9.13
2019-05-18T21:10:52.158Z,8.60
2019-05-18T21:13:18.572Z,8.93
2019-05-18T21:15:44.728Z,7.97
2019-05-18T21:18:11.000Z,8.03
2019-05-18T21:20:37.126Z,9.47
2019-05-18T21:23:03.354Z,8.77
2019-05-18T21:25:29.623Z,8.87
2019-05-18T21:27:55.827Z,7.90
2019-05-18T21:30:22.011Z,9.93
2019-05-18T21:32:48.185Z,9.97
2019-05-18T21:35:14.454Z,9.20
2019-05-18T21:37:40.634Z,10.37
2019-05-18T21:40:07.624Z,8.90
2019-05-18T21:42:33.826Z,9.83
2019-05-18T21:45:00.081Z,10.40
2019-05-18T21:47:26.292Z,10.00
2019-05-18T21:49:52.633Z,10.67
2019-05-18T21:52:18.787Z,10.03
2019-05-18T21:54:44.936Z,10.43
2019-05-18T21:57:11.106Z,10.87
2019-05-18T21:59:37.259Z,10.70
2019-05-18T22:02:03.920Z,10.33
2019-05-18T22:04:30.466Z,11.50
2019-05-18T22:06:56.643Z,11.63
2019-05-18T22:09:22.795Z,13.23
2019-05-18T22:11:51.980Z,10.87
2019-05-18T22:14:18.147Z,11.00
2019-05-18T22:16:44.327Z,11.97
2019-05-18T22:19:10.555Z,11.07
2019-05-18T22:21:36.741Z,11.87
2019-05-18T22:24:03.110Z,11.90
2019-05-18T22:26:29.260Z,12.10
2019-05-18T22:28:55.430Z,11.40
2019-05-18T22:31:21.592Z,11.30
2019-05-18T22:33:47.734Z,13.07
2019-05-18T22:36:13.896Z,11.60
2019-05-18T22:38:40.044Z,11.37
2019-05-18T22:41:06.190Z,11.30
2019-05-18T22:43:32.365Z,10.97
2019-05-18T22:45:58.505Z,12.30
2019-05-18T22:48:38.914Z,11.30
2019-05-18T22:50:53.077Z,10.53
2019-05-18T22:53:19.276Z,11.23
2019-05-18T22:55:45.444Z,10.40
2019-05-18T22:58:11.595Z,12.27
2019-05-18T23:00:37.762Z,11.70
2019-05-18T23:03:04.413Z,10.30
2019-05-18T23:05:30.614Z,10.97
2019-05-18T23:07:56.777Z,11.63
2019-05-18T23:10:23.237Z,11.73
2019-05-18T23:12:49.485Z,10.83
2019-05-18T23:15:15.841Z,10.90
2019-05-18T23:17:42.609Z,11.43
2019-05-18T23:20:08.868Z,9.93
2019-05-18T23:22:35.104Z,10.80
2019-05-18T23:25:01.274Z,10.53
2019-05-18T23:27:27.459Z,10.50
2019-05-18T23:29:53.691Z,11.23
2019-05-18T23:32:19.981Z,11.63
2019-05-18T23:34:46.536Z,10.87
2019-05-18T23:37:12.970Z,9.97
2019-05-18T23:39:39.437Z,10.93
2019-05-18T23:42:05.626Z,11.17
2019-05-18T23:44:31.776Z,10.90
2019-05-18T23:46:57.919Z,11.33
2019-05-18T23:49:24.097Z,10.93
2019-05-18T23:51:50.240Z,10.83
2019-05-18T23:54:16.409Z,11.73
2019-05-18T23:56:42.562Z,12.50
2019-05-18T23:59:08.727Z,11.43
